Time;durP1;ratioP1;P1;durP2;ratioP2;P2;SDS_P1;SDS_P2;PMS_P1;PMS_P2;Temp;Humidity;BMP_temperature;BMP_pressure;BME280_temperature;BME280_humidity;BME280_pressure;Samples;Min_cycle;Max_cycle;Signal;HPM_P1;HPM_P2
2024/01/28 00:00:38;;;;;;;33.23;17.63;;;;;;;-0.51;96.29;103051.13;4958684;29;20612;-69
2024/01/28 00:03:05;;;;;;;36.87;15.80;;;;;;;-0.57;96.37;103045.97;4958390;28;20205;-69
2024/01/28 00:05:32;;;;;;;30.60;15.63;;;;;;;-0.58;96.12;103049.50;4958305;28;20297;-69
2024/01/28 00:07:58;;;;;;;26.20;15.07;;;;;;;-0.60;96.84;103048.66;4958362;28;20273;-69
2024/01/28 00:10:25;;;;;;;30.47;15.67;;;;;;;-0.61;96.56;103043.41;4958808;29;20790;-69
2024/01/28 00:12:52;;;;;;;30.50;15.73;;;;;;;-0.68;96.82;103040.00;4958203;29;20665;-69
2024/01/28 00:15:18;;;;;;;31.53;17.30;;;;;;;-0.71;96.39;103039.19;4958119;29;20197;-70
2024/01/28 00:17:45;;;;;;;29.93;16.23;;;;;;;-0.74;96.29;103036.63;4958369;28;20212;-69
2024/01/28 00:20:11;;;;;;;34.57;16.67;;;;;;;-0.78;96.60;103040.19;4958602;28;20657;-70
2024/01/28 00:22:38;;;;;;;44.77;18.33;;;;;;;-0.85;96.39;103033.28;4958035;29;20197;-70
2024/01/28 00:25:04;;;;;;;39.03;16.57;;;;;;;-0.89;96.35;103027.19;4958720;28;20204;-70
2024/01/28 00:27:31;;;;;;;38.97;15.97;;;;;;;-0.93;96.10;103026.38;4958147;28;20215;-69
2024/01/28 00:29:57;;;;;;;28.87;14.80;;;;;;;-0.94;96.47;103021.16;4957877;29;20197;-69
2024/01/28 00:32:23;;;;;;;36.40;15.87;;;;;;;-0.98;97.09;103017.69;4957860;29;20186;-69
2024/01/28 00:34:50;;;;;;;24.77;15.67;;;;;;;-1.04;97.07;103009.94;4958062;28;20208;-70
2024/01/28 00:37:17;;;;;;;38.20;17.17;;;;;;;-1.10;96.47;103012.63;4957741;28;20334;-69
2024/01/28 00:39:43;;;;;;;34.40;14.17;;;;;;;-1.14;96.84;103007.44;4957966;29;20194;-70
2024/01/28 00:42:10;;;;;;;29.50;16.83;;;;;;;-1.14;96.76;103007.44;4957675;28;20214;-70
2024/01/28 00:44:36;;;;;;;35.67;16.40;;;;;;;-1.19;96.98;103002.25;4957791;28;20220;-70
2024/01/28 00:47:03;;;;;;;29.13;16.07;;;;;;;-1.20;96.86;103003.16;4957804;28;20629;-70
2024/01/28 00:49:30;;;;;;;37.33;16.77;;;;;;;-1.18;97.45;103000.50;4957776;28;20231;-70
2024/01/28 00:51:57;;;;;;;35.73;17.47;;;;;;;-1.19;96.69;103002.25;4958060;28;20243;-70
2024/01/28 00:54:25;;;;;;;31.17;15.57;;;;;;;-1.20;96.74;102999.66;4957468;29;20186;-70
2024/01/28 00:56:52;;;;;;;23.23;15.10;;;;;;;-1.24;96.68;103000.59;4957779;28;20606;-70
2024/01/28 00:59:19;;;;;;;40.03;15.63;;;;;;;-1.21;97.39;103011.03;4957363;29;20561;-70
2024/01/28 01:01:46;;;;;;;25.17;15.60;;;;;;;-1.22;96.49;103004.91;4958109;28;20195;-70
2024/01/28 01:04:12;;;;;;;23.57;14.30;;;;;;;-1.26;97.02;103000.59;4957445;28;20255;-70
2024/01/28 01:06:43;;;;;;;25.77;15.57;;;;;;;-1.27;97.42;103008.53;4957960;28;20195;-69
2024/01/28 01:09:10;;;;;;;26.90;15.47;;;;;;;-1.31;96.93;103001.53;4957523;28;20186;-70
2024/01/28 01:11:37;;;;;;;28.47;15.47;;;;;;;-1.30;96.73;103004.16;4957956;28;20194;-70
2024/01/28 01:14:04;;;;;;;25.17;16.23;;;;;;;-1.31;97.45;103006.78;4957122;28;20723;-70
2024/01/28 01:16:30;;;;;;;34.70;16.63;;;;;;;-1.32;96.58;103005.09;4957364;28;20224;-70
2024/01/28 01:18:56;;;;;;;31.93;15.27;;;;;;;-1.35;96.96;102997.22;4957017;28;20264;-70
2024/01/28 01:21:23;;;;;;;33.43;16.00;;;;;;;-1.35;96.67;102999.84;4957043;29;20660;-70
2024/01/28 01:23:49;;;;;;;28.47;15.33;;;;;;;-1.35;96.56;102994.59;4956918;29;20208;-70
2024/01/28 01:26:16;;;;;;;28.23;13.73;;;;;;;-1.40;97.06;102992.91;4957756;29;20198;-70
2024/01/28 01:28:42;;;;;;;31.63;15.73;;;;;;;-1.44;97.43;102982.47;4958057;28;20678;-70
2024/01/28 01:31:09;;;;;;;25.27;13.83;;;;;;;-1.48;97.33;102981.66;4961996;28;20189;-70
2024/01/28 01:33:35;;;;;;;29.60;13.40;;;;;;;-1.49;96.94;102981.69;4961825;28;20191;-70
2024/01/28 01:36:04;;;;;;;32.33;16.17;;;;;;;-1.55;96.74;102979.13;4958478;28;20207;-70
2024/01/28 01:38:31;;;;;;;38.43;16.07;;;;;;;-1.56;97.78;102985.25;4957229;28;20232;-70
2024/01/28 01:40:58;;;;;;;24.73;14.57;;;;;;;-1.57;96.79;102971.28;4957137;29;20204;-70
2024/01/28 01:43:25;;;;;;;24.83;13.53;;;;;;;-1.59;97.69;102973.06;4957143;28;20546;-70
2024/01/28 01:45:52;;;;;;;30.60;14.37;;;;;;;-1.57;97.40;102976.53;4956820;28;20705;-70
2024/01/28 01:48:20;;;;;;;39.93;16.10;;;;;;;-1.59;97.08;102973.06;4956996;28;20221;-70
2024/01/28 01:50:46;;;;;;;29.37;15.23;;;;;;;-1.59;97.95;102973.06;4956943;29;20220;-70
2024/01/28 01:53:13;;;;;;;20.67;14.03;;;;;;;-1.61;96.70;102972.19;4956930;28;20197;-70
2024/01/28 01:55:40;;;;;;;25.77;15.40;;;;;;;-1.64;97.25;102966.13;4957015;28;20167;-69
2024/01/28 01:58:08;;;;;;;27.87;14.60;;;;;;;-1.64;97.67;102966.13;4956535;28;20231;-70
2024/01/28 02:00:35;;;;;;;26.17;15.33;;;;;;;-1.65;97.07;102978.38;4956245;29;20188;-70
2024/01/28 02:03:02;;;;;;;24.67;15.67;;;;;;;-1.65;97.13;102969.63;4955512;28;20198;-70
2024/01/28 02:05:29;;;;;;;38.40;16.40;;;;;;;-1.69;96.92;102970.56;4956380;28;20212;-70
2024/01/28 02:07:56;;;;;;;33.30;18.20;;;;;;;-1.73;97.49;102961.88;4956091;28;20213;-69
2024/01/28 02:10:22;;;;;;;30.20;17.37;;;;;;;-1.74;97.90;102961.91;4956347;29;20195;-69
2024/01/28 02:12:52;;;;;;;31.00;16.80;;;;;;;-1.76;98.35;102958.44;4956359;28;20263;-69
2024/01/28 02:15:19;;;;;;;27.77;17.40;;;;;;;-1.76;97.95;102958.44;4956229;28;20560;-70
2024/01/28 02:17:45;;;;;;;38.90;17.80;;;;;;;-1.74;97.78;102954.03;4955911;28;20265;-69
2024/01/28 02:20:12;;;;;;;32.07;19.13;;;;;;;-1.76;98.32;102947.94;4955906;29;20274;-70
2024/01/28 02:22:38;;;;;;;34.43;18.50;;;;;;;-1.76;98.13;102942.69;4955854;28;20599;-70
2024/01/28 02:25:06;;;;;;;44.80;18.67;;;;;;;-1.75;98.44;102940.06;4956285;28;20211;-70
2024/01/28 02:27:34;;;;;;;35.73;17.03;;;;;;;-1.74;98.31;102927.81;4955708;28;20257;-70
2024/01/28 02:30:01;;;;;;;42.40;18.40;;;;;;;-1.75;98.15;102932.19;4956324;29;20223;-70
2024/01/28 02:32:28;;;;;;;39.13;18.10;;;;;;;-1.77;98.56;102936.59;4955713;29;20191;-70
2024/01/28 02:34:57;;;;;;;34.57;17.93;;;;;;;-1.77;98.36;102931.34;4955989;28;20615;-70
2024/01/28 02:37:24;;;;;;;41.27;16.90;;;;;;;-1.74;99.34;102935.69;4955643;28;20564;-70
2024/01/28 02:39:50;;;;;;;34.00;16.93;;;;;;;-1.75;98.49;102936.56;4956100;29;20662;-70
2024/01/28 02:42:17;;;;;;;39.67;17.47;;;;;;;-1.75;98.44;102942.69;4956091;29;20652;-70
2024/01/28 02:44:43;;;;;;;35.77;17.57;;;;;;;-1.74;99.06;102947.03;4955463;29;20615;-70
2024/01/28 02:47:09;;;;;;;36.10;18.23;;;;;;;-1.76;99.20;102940.06;4955401;28;20210;-69
2024/01/28 02:49:36;;;;;;;35.37;17.30;;;;;;;-1.75;98.63;102941.81;4955678;29;20199;-70
2024/01/28 02:52:03;;;;;;;33.27;17.03;;;;;;;-1.73;98.93;102930.41;4955733;28;20348;-69
2024/01/28 02:54:29;;;;;;;32.33;16.67;;;;;;;-1.77;99.40;102920.84;4955381;28;20194;-69
2024/01/28 02:56:56;;;;;;;24.67;15.07;;;;;;;-1.70;99.36;102922.53;4955389;28;20702;-69
2024/01/28 02:59:22;;;;;;;32.07;16.40;;;;;;;-1.60;99.90;102907.50;4955579;29;20238;-69
2024/01/28 03:01:49;;;;;;;29.07;16.00;;;;;;;-1.56;99.74;102911.81;4955839;28;20234;-69
2024/01/28 03:04:16;;;;;;;37.27;15.77;;;;;;;-1.59;99.05;102909.25;4955485;29;20251;-70
2024/01/28 03:06:42;;;;;;;31.07;16.37;;;;;;;-1.60;98.81;102902.28;4955372;28;20622;-69
2024/01/28 03:09:09;;;;;;;31.90;16.93;;;;;;;-1.62;99.43;102910.19;4955495;29;20206;-69
2024/01/28 03:11:37;;;;;;;32.53;17.13;;;;;;;-1.62;99.07;102906.69;4955777;29;20191;-69
2024/01/28 03:14:03;;;;;;;38.40;18.23;;;;;;;-1.64;99.20;102906.69;4955385;28;20182;-69
2024/01/28 03:16:29;;;;;;;42.30;18.50;;;;;;;-1.65;99.97;102917.19;4955434;29;20230;-70
2024/01/28 03:18:56;;;;;;;33.30;17.53;;;;;;;-1.65;99.09;102910.19;4955062;28;20238;-69
2024/01/28 03:21:22;;;;;;;34.13;16.57;;;;;;;-1.57;100.00;102910.13;4955668;29;20235;-69
2024/01/28 03:23:49;;;;;;;32.63;16.90;;;;;;;-1.51;99.71;102900.41;4955270;29;20196;-69
2024/01/28 03:26:15;;;;;;;35.53;18.13;;;;;;;-1.50;99.58;102899.50;4955011;28;20277;-70
2024/01/28 03:28:42;;;;;;;29.57;17.10;;;;;;;-1.50;99.21;102898.66;4955526;28;20753;-69
2024/01/28 03:31:09;;;;;;;33.80;19.40;;;;;;;-1.50;99.25;102891.66;4955552;29;20183;-70
2024/01/28 03:33:35;;;;;;;41.67;18.30;;;;;;;-1.47;98.84;102890.72;4955336;28;20185;-70
2024/01/28 03:36:02;;;;;;;37.43;18.53;;;;;;;-1.54;98.86;102891.72;4955246;28;20184;-70
2024/01/28 03:38:29;;;;;;;32.23;18.83;;;;;;;-1.51;99.35;102883.78;4955006;28;20226;-69
2024/01/28 03:40:55;;;;;;;34.43;21.10;;;;;;;-1.54;99.29;102889.97;4954917;29;20195;-69
2024/01/28 03:43:22;;;;;;;35.53;19.13;;;;;;;-1.58;98.80;102882.16;4955473;28;20203;-69
2024/01/28 03:45:48;;;;;;;31.17;13.93;;;;;;;-1.52;99.08;102884.66;4955145;28;20204;-69
2024/01/28 03:48:15;;;;;;;26.10;14.63;;;;;;;-1.45;99.17;102894.22;4955056;28;20302;-69
2024/01/28 03:50:41;;;;;;;38.70;16.73;;;;;;;-1.44;99.30;102878.41;4955049;29;20276;-69
2024/01/28 03:53:08;;;;;;;34.37;16.13;;;;;;;-1.34;99.24;102887.03;4955631;29;20188;-69
2024/01/28 03:55:34;;;;;;;31.97;16.13;;;;;;;-1.37;98.94;102889.72;4955037;29;20194;-69
2024/01/28 03:58:01;;;;;;;22.23;13.67;;;;;;;-1.39;98.51;102889.72;4954827;28;20211;-69
2024/01/28 04:00:30;;;;;;;28.57;15.97;;;;;;;-1.35;98.62;102885.28;4954756;29;20204;-69
2024/01/28 04:02:57;;;;;;;35.37;17.50;;;;;;;-1.36;98.33;102880.97;4955028;28;20207;-69
2024/01/28 04:05:24;;;;;;;41.77;16.63;;;;;;;-1.40;98.40;102882.72;4954655;28;20223;-69
2024/01/28 04:07:50;;;;;;;30.90;16.00;;;;;;;-1.41;98.45;102880.16;4954881;28;20223;-69
2024/01/28 04:10:16;;;;;;;27.60;15.97;;;;;;;-1.42;98.69;102878.41;4954646;29;20199;-70
2024/01/28 04:12:43;;;;;;;36.17;16.53;;;;;;;-1.50;98.54;102875.91;4954913;28;20188;-70
2024/01/28 04:15:10;;;;;;;24.50;15.00;;;;;;;-1.53;97.79;102875.09;4955153;28;20191;-70
2024/01/28 04:17:36;;;;;;;20.37;14.43;;;;;;;-1.60;97.69;102866.44;4954550;28;20215;-69
2024/01/28 04:20:08;;;;;;;27.70;15.97;;;;;;;-1.67;97.82;102870.03;4954843;29;20618;-69
2024/01/28 04:22:35;;;;;;;39.70;16.37;;;;;;;-1.70;97.51;102856.97;4954635;28;20208;-69
2024/01/28 04:25:01;;;;;;;48.87;16.87;;;;;;;-1.70;98.21;102851.72;4955424;28;20270;-69
2024/01/28 04:27:28;;;;;;;39.50;14.40;;;;;;;-1.70;98.64;102845.63;4958184;28;20301;-69
2024/01/28 04:29:55;;;;;;;31.60;16.03;;;;;;;-1.73;98.19;102850.88;4958173;29;20223;-69
2024/01/28 04:32:21;;;;;;;33.20;15.97;;;;;;;-1.75;98.24;102848.31;4958174;28;20252;-69
2024/01/28 04:34:48;;;;;;;33.00;17.10;;;;;;;-1.71;98.54;102847.38;4957866;28;20574;-69
2024/01/28 04:37:14;;;;;;;24.43;14.23;;;;;;;-1.71;97.56;102847.38;4958085;28;20581;-69
2024/01/28 04:39:41;;;;;;;35.23;16.83;;;;;;;-1.73;97.65;102846.50;4957726;29;20247;-70
2024/01/28 04:42:08;;;;;;;31.07;16.30;;;;;;;-1.73;97.93;102845.63;4957986;28;20191;-70
2024/01/28 04:44:34;;;;;;;34.83;16.80;;;;;;;-1.75;97.86;102839.56;4957643;28;20187;-70
2024/01/28 04:47:01;;;;;;;36.70;17.10;;;;;;;-1.72;98.21;102836.91;4958122;28;20266;-69
2024/01/28 04:49:28;;;;;;;44.33;16.80;;;;;;;-1.78;97.25;102829.97;4958330;29;20658;-69
2024/01/28 04:51:55;;;;;;;35.60;16.47;;;;;;;-1.77;97.44;102828.22;4957841;29;20200;-69
2024/01/28 04:54:22;;;;;;;32.33;17.43;;;;;;;-1.82;98.17;102815.19;4957782;28;20587;-69
2024/01/28 04:56:49;;;;;;;35.13;17.47;;;;;;;-1.84;98.02;102811.72;4957420;28;20187;-69
2024/01/28 04:59:15;;;;;;;30.10;16.77;;;;;;;-1.82;97.63;102812.56;4957915;29;20198;-70
2024/01/28 05:01:43;;;;;;;32.30;16.57;;;;;;;-1.82;97.55;102811.72;4957609;28;20234;-70
2024/01/28 05:04:09;;;;;;;29.20;15.63;;;;;;;-1.86;97.10;102811.75;4957340;28;20349;-70
2024/01/28 05:06:36;;;;;;;29.53;15.90;;;;;;;-1.83;97.20;102813.47;4957663;28;20206;-69
2024/01/28 05:09:04;;;;;;;27.87;16.50;;;;;;;-1.80;97.89;102813.41;4957226;29;20194;-70
2024/01/28 05:11:33;;;;;;;30.47;15.13;;;;;;;-1.79;98.07;102794.19;4957451;28;20274;-70
2024/01/28 05:14:00;;;;;;;24.20;14.13;;;;;;;-1.79;97.51;102793.31;4957172;28;20190;-70
2024/01/28 05:16:27;;;;;;;26.07;16.40;;;;;;;-1.81;97.22;102797.69;4957116;29;20194;-70
2024/01/28 05:18:53;;;;;;;23.77;15.57;;;;;;;-1.82;97.25;102801.22;4956988;28;20239;-69
2024/01/28 05:21:20;;;;;;;28.53;15.13;;;;;;;-1.80;97.35;102796.81;4957242;28;20199;-69
2024/01/28 05:23:47;;;;;;;27.33;15.00;;;;;;;-1.82;97.15;102788.97;4956976;28;20285;-69
2024/01/28 05:26:14;;;;;;;25.27;15.57;;;;;;;-1.85;97.60;102792.50;4956909;29;20259;-70
2024/01/28 05:28:41;;;;;;;29.03;14.80;;;;;;;-1.83;97.37;102787.25;4957357;28;20241;-70
2024/01/28 05:31:08;;;;;;;25.40;15.50;;;;;;;-1.85;98.01;102787.25;4957346;29;20199;-70
2024/01/28 05:33:37;;;;;;;28.33;14.83;;;;;;;-1.86;97.80;102789.91;4957366;28;20195;-70
2024/01/28 05:36:14;;;;;;;24.63;14.83;;;;;;;-1.88;97.68;102784.69;4956459;28;20608;-70
2024/01/28 05:38:41;;;;;;;26.37;15.07;;;;;;;-1.92;97.73;102783.00;4956643;28;20226;-69
2024/01/28 05:41:08;;;;;;;22.97;14.10;;;;;;;-1.92;97.25;102775.16;4956873;29;20192;-69
2024/01/28 05:43:34;;;;;;;25.07;13.50;;;;;;;-1.93;97.70;102783.03;4956680;28;20222;-69
2024/01/28 05:46:02;;;;;;;21.90;12.50;;;;;;;-1.96;96.74;102777.84;4956492;28;20224;-69
2024/01/28 05:48:29;;;;;;;20.93;13.63;;;;;;;-1.97;97.09;102787.44;4956442;28;20261;-70
2024/01/28 05:50:56;;;;;;;26.23;13.17;;;;;;;-1.99;96.88;102789.22;4956984;29;20673;-70
2024/01/28 05:53:26;;;;;;;20.00;14.20;;;;;;;-1.98;96.51;102780.47;4956741;29;20238;-69
2024/01/28 05:55:52;;;;;;;16.00;12.73;;;;;;;-1.97;97.77;102783.94;4956654;29;20176;-69
2024/01/28 05:58:20;;;;;;;26.07;15.30;;;;;;;-2.00;96.97;102782.25;4956547;28;20211;-69
2024/01/28 06:00:47;;;;;;;22.40;13.47;;;;;;;-1.98;97.37;102777.84;4956822;29;20183;-69
2024/01/28 06:03:14;;;;;;;23.60;13.70;;;;;;;-1.95;97.29;102780.41;4956509;29;20262;-69
2024/01/28 06:05:41;;;;;;;26.40;13.57;;;;;;;-2.00;96.70;102779.63;4956340;29;20297;-69
2024/01/28 06:08:08;;;;;;;25.87;14.23;;;;;;;-2.05;97.48;102765.72;4956177;28;20274;-70
2024/01/28 06:10:34;;;;;;;19.13;13.37;;;;;;;-2.11;96.44;102763.19;4956301;29;20566;-70
2024/01/28 06:13:01;;;;;;;27.13;15.30;;;;;;;-2.14;96.52;102770.22;4956593;29;20260;-70
2024/01/28 06:15:27;;;;;;;26.93;14.07;;;;;;;-2.24;97.05;102774.72;4956320;28;20177;-69
2024/01/28 06:17:54;;;;;;;23.10;14.20;;;;;;;-2.22;97.66;102778.19;4956219;28;20297;-69
2024/01/28 06:20:21;;;;;;;21.07;12.77;;;;;;;-2.23;96.96;102778.19;4956667;28;20449;-69
2024/01/28 06:22:47;;;;;;;26.57;15.77;;;;;;;-2.28;97.34;102778.25;4955994;29;20500;-69
2024/01/28 06:25:14;;;;;;;27.90;15.53;;;;;;;-2.26;97.50;102778.25;4956345;28;20207;-69
2024/01/28 06:27:40;;;;;;;26.70;15.37;;;;;;;-2.26;97.89;102771.25;4955729;28;20269;-69
2024/01/28 06:30:07;;;;;;;26.63;14.53;;;;;;;-2.28;97.92;102778.25;4956781;29;20193;-69
2024/01/28 06:32:34;;;;;;;23.90;13.80;;;;;;;-2.23;97.15;102767.72;4955777;28;20626;-70
2024/01/28 06:35:00;;;;;;;26.90;13.77;;;;;;;-2.22;97.13;102778.19;4955684;28;20245;-70
2024/01/28 06:37:27;;;;;;;34.27;15.33;;;;;;;-2.25;97.46;102772.13;4955827;28;20225;-70
2024/01/28 06:39:54;;;;;;;23.00;14.07;;;;;;;-2.25;97.46;102772.13;4955824;28;20531;-70
2024/01/28 06:42:20;;;;;;;30.77;13.77;;;;;;;-2.27;97.76;102773.88;4955578;28;20686;-70
2024/01/28 06:44:47;;;;;;;39.00;14.87;;;;;;;-2.29;98.14;102767.81;4955498;29;20491;-70
2024/01/28 06:47:13;;;;;;;24.40;13.50;;;;;;;-2.28;97.55;102769.53;4955252;28;20472;-70
2024/01/28 06:49:41;;;;;;;22.17;14.87;;;;;;;-2.25;97.81;102770.38;4955193;28;20448;-70
2024/01/28 06:52:07;;;;;;;33.50;16.90;;;;;;;-2.24;97.07;102764.22;4955409;29;20718;-70
2024/01/28 06:54:34;;;;;;;24.73;13.60;;;;;;;-2.25;98.09;102769.50;4955664;29;20241;-70
2024/01/28 06:57:00;;;;;;;23.97;13.70;;;;;;;-2.24;97.34;102768.59;4955290;28;20543;-69
2024/01/28 06:59:27;;;;;;;18.73;13.10;;;;;;;-2.22;97.79;102770.31;4955612;29;20603;-70
2024/01/28 07:01:54;;;;;;;26.23;13.30;;;;;;;-2.20;98.49;102776.41;4955310;28;20205;-70
2024/01/28 07:04:20;;;;;;;32.60;14.50;;;;;;;-2.19;98.37;102772.03;4955510;28;20238;-70
2024/01/28 07:06:47;;;;;;;24.83;13.57;;;;;;;-2.19;97.92;102778.13;4955377;28;20206;-69
2024/01/28 07:09:14;;;;;;;21.33;12.90;;;;;;;-2.16;98.35;102775.47;4955487;29;20257;-70
2024/01/28 07:11:40;;;;;;;32.20;13.50;;;;;;;-2.11;98.33;102776.28;4955721;28;20225;-70
2024/01/28 07:14:07;;;;;;;34.27;14.10;;;;;;;-2.12;97.64;102774.53;4955196;28;20190;-70
2024/01/28 07:16:34;;;;;;;22.77;14.43;;;;;;;-2.12;97.57;102776.31;4955902;28;20575;-69
2024/01/28 07:19:03;;;;;;;22.30;12.80;;;;;;;-2.11;97.76;102770.16;4955645;29;20195;-70
2024/01/28 07:21:29;;;;;;;26.13;14.47;;;;;;;-2.12;97.97;102771.09;4955114;28;20202;-70
2024/01/28 07:23:56;;;;;;;29.73;14.17;;;;;;;-2.12;97.63;102763.22;4955126;28;20206;-70
2024/01/28 07:26:22;;;;;;;30.40;14.67;;;;;;;-2.15;98.24;102758.88;4955287;28;20257;-70
2024/01/28 07:28:49;;;;;;;21.67;14.03;;;;;;;-2.17;97.45;102750.19;4955029;28;20489;-70
2024/01/28 07:31:15;;;;;;;21.43;14.23;;;;;;;-2.17;98.13;102754.56;4954997;29;20233;-71
2024/01/28 07:33:42;;;;;;;29.80;15.50;;;;;;;-2.19;97.53;102744.09;4955226;28;20446;-71
2024/01/28 07:36:08;;;;;;;45.20;21.63;;;;;;;-2.18;98.72;102737.09;4955252;28;20193;-71
2024/01/28 07:38:35;;;;;;;29.27;15.70;;;;;;;-2.18;98.37;102743.19;4954965;28;20211;-70
2024/01/28 07:41:01;;;;;;;29.20;15.33;;;;;;;-2.17;98.66;102744.06;4955386;29;20187;-70
2024/01/28 07:43:28;;;;;;;28.00;15.57;;;;;;;-2.14;98.45;102741.41;4954900;28;20765;-70
2024/01/28 07:45:55;;;;;;;30.90;16.70;;;;;;;-2.07;98.89;102730.81;4954852;28;20577;-70
2024/01/28 07:48:21;;;;;;;34.27;16.60;;;;;;;-2.04;98.46;102736.03;4955051;28;20221;-70
2024/01/28 07:50:48;;;;;;;36.73;15.47;;;;;;;-1.95;98.73;102727.13;4954868;29;20190;-70
2024/01/28 07:53:14;;;;;;;27.83;15.37;;;;;;;-1.90;97.77;102718.31;4955489;28;20436;-71
2024/01/28 07:55:41;;;;;;;31.47;14.87;;;;;;;-1.76;98.36;102714.63;4954799;28;20425;-71
2024/01/28 07:58:07;;;;;;;25.00;14.53;;;;;;;-1.71;98.16;102711.03;4954832;28;20215;-70
2024/01/28 08:00:34;;;;;;;25.93;14.47;;;;;;;-1.65;97.71;102708.28;4956688;28;20634;-70
2024/01/28 08:03:00;;;;;;;29.10;15.23;;;;;;;-1.54;97.05;102708.13;4958458;29;20807;-70
2024/01/28 08:05:26;;;;;;;34.00;15.40;;;;;;;-1.41;96.36;102709.66;4958308;29;20191;-70
2024/01/28 08:07:54;;;;;;;34.93;15.30;;;;;;;-1.36;95.48;102709.56;4958519;28;20219;-70
2024/01/28 08:10:21;;;;;;;32.97;14.90;;;;;;;-1.28;95.08;102707.66;4958265;29;20198;-70
2024/01/28 08:12:47;;;;;;;25.77;15.70;;;;;;;-1.21;95.54;102711.91;4958332;28;20195;-70
2024/01/28 08:15:15;;;;;;;28.63;15.17;;;;;;;-1.15;94.46;102715.28;4957120;29;20246;-70
2024/01/28 08:17:42;;;;;;;40.23;15.93;;;;;;;-1.09;94.58;102709.91;4958118;28;20295;-70
2024/01/28 08:20:09;;;;;;;29.00;14.93;;;;;;;-1.00;94.05;102704.50;4958144;29;20671;-70
2024/01/28 08:22:35;;;;;;;27.70;14.27;;;;;;;-0.95;93.54;102702.66;4958028;29;20598;-70
2024/01/28 08:25:02;;;;;;;27.90;13.80;;;;;;;-0.88;94.09;102703.38;4956884;28;20263;-71
2024/01/28 08:27:30;;;;;;;32.53;14.47;;;;;;;-0.77;93.85;102692.69;4958026;28;20246;-70
2024/01/28 08:29:56;;;;;;;34.67;13.33;;;;;;;-0.68;93.96;102695.94;4958227;28;20276;-70
2024/01/28 08:32:23;;;;;;;21.63;12.60;;;;;;;-0.53;92.80;102700.03;4957947;28;20691;-71
2024/01/28 08:34:51;;;;;;;23.77;14.23;;;;;;;-0.38;93.10;102693.59;4958423;29;20192;-71
2024/01/28 08:37:18;;;;;;;21.50;13.50;;;;;;;-0.23;91.69;102693.25;4957751;28;20215;-71
2024/01/28 08:39:44;;;;;;;26.33;12.93;;;;;;;-0.10;91.12;102689.44;4957799;29;20241;-70
2024/01/28 08:42:11;;;;;;;33.57;12.10;;;;;;;0.05;90.52;102688.19;4958248;29;20724;-70
2024/01/28 08:44:39;;;;;;;20.20;13.83;;;;;;;0.17;90.08;102685.28;4957704;29;20313;-70
2024/01/28 08:47:06;;;;;;;22.10;12.53;;;;;;;0.27;89.80;102690.28;4957560;28;20225;-70
2024/01/28 08:49:33;;;;;;;21.60;12.23;;;;;;;0.37;89.59;102680.41;4957639;29;20191;-70
2024/01/28 08:51:59;;;;;;;17.80;12.73;;;;;;;0.53;88.88;102681.72;4957825;28;20201;-70
2024/01/28 08:54:26;;;;;;;23.00;11.93;;;;;;;0.65;88.30;102676.13;4957833;29;20272;-70
2024/01/28 08:56:52;;;;;;;15.37;10.87;;;;;;;0.79;87.92;102679.28;4957721;28;20207;-70
2024/01/28 08:59:19;;;;;;;18.97;12.73;;;;;;;0.91;87.33;102686.84;4957998;29;20198;-71
2024/01/28 09:01:47;;;;;;;18.47;11.80;;;;;;;1.08;86.22;102685.50;4957965;28;20261;-71
2024/01/28 09:04:14;;;;;;;18.03;11.37;;;;;;;1.29;85.17;102684.88;4957652;28;20188;-71
2024/01/28 09:06:41;;;;;;;10.70;9.80;;;;;;;1.44;84.41;102684.44;4957667;28;20199;-70
2024/01/28 09:09:08;;;;;;;12.93;10.20;;;;;;;1.61;84.43;102689.22;4957470;28;20701;-70
2024/01/28 09:11:37;;;;;;;14.67;10.87;;;;;;;1.72;83.84;102685.34;4957512;28;20643;-70
2024/01/28 09:14:04;;;;;;;12.93;9.57;;;;;;;1.86;83.24;102687.53;4957183;28;20190;-70
2024/01/28 09:16:31;;;;;;;17.40;10.30;;;;;;;1.98;81.94;102681.88;4957646;28;20241;-70
2024/01/28 09:18:57;;;;;;;11.70;9.70;;;;;;;2.13;82.22;102681.38;4957360;28;20218;-70
2024/01/28 09:21:24;;;;;;;12.67;9.60;;;;;;;2.29;82.21;102679.94;4957343;28;20210;-70
2024/01/28 09:23:50;;;;;;;15.63;10.20;;;;;;;2.44;81.05;102678.59;4957037;28;20254;-70
2024/01/28 09:26:17;;;;;;;12.90;9.37;;;;;;;2.62;77.91;102675.31;4956847;28;20214;-70
2024/01/28 09:28:43;;;;;;;15.77;9.40;;;;;;;2.80;76.05;102683.53;4957135;28;20618;-70
2024/01/28 09:31:10;;;;;;;9.27;8.37;;;;;;;2.93;75.52;102674.25;4957165;28;20254;-70
2024/01/28 09:33:36;;;;;;;12.97;8.90;;;;;;;3.09;73.88;102671.00;4957049;28;20194;-70
2024/01/28 09:36:03;;;;;;;10.30;8.20;;;;;;;3.29;73.89;102670.25;4956934;28;20175;-71
2024/01/28 09:38:29;;;;;;;9.87;8.40;;;;;;;3.44;72.10;102680.22;4956550;28;20759;-70
2024/01/28 09:41:07;;;;;;;7.80;7.20;;;;;;;3.57;72.09;102675.31;4957066;28;20211;-70
2024/01/28 09:43:39;;;;;;;13.43;8.13;;;;;;;3.71;71.60;102678.31;4956952;28;20583;-70
2024/01/28 09:46:06;;;;;;;13.63;8.53;;;;;;;3.89;70.47;102669.66;4956897;28;20184;-70
2024/01/28 09:48:34;;;;;;;12.37;8.60;;;;;;;4.04;69.79;102669.03;4956614;28;20213;-72
2024/01/28 09:51:01;;;;;;;8.97;7.57;;;;;;;4.20;69.01;102655.19;4956522;28;20187;-71
2024/01/28 09:53:27;;;;;;;10.90;8.60;;;;;;;4.40;67.98;102663.16;4956971;28;20242;-71
2024/01/28 09:55:54;;;;;;;8.97;7.90;;;;;;;4.49;67.64;102654.81;4956672;28;20223;-71
2024/01/28 09:58:22;;;;;;;20.10;8.53;;;;;;;4.65;66.98;102652.34;4956301;28;20377;-71
2024/01/28 10:00:48;;;;;;;8.90;8.20;;;;;;;4.83;67.09;102643.59;4956906;28;20178;-71
2024/01/28 10:03:15;;;;;;;9.97;8.40;;;;;;;4.93;67.05;102651.06;4956280;28;20233;-71
2024/01/28 10:05:42;;;;;;;9.40;8.60;;;;;;;5.00;67.20;102647.22;4956490;28;20666;-71
2024/01/28 10:08:09;;;;;;;8.63;7.87;;;;;;;5.11;65.81;102646.72;4956639;28;20218;-71
2024/01/28 10:10:35;;;;;;;10.87;8.37;;;;;;;5.22;64.92;102639.13;4956391;28;20535;-71
2024/01/28 10:13:03;;;;;;;10.13;9.10;;;;;;;5.32;65.75;102637.78;4956069;28;20195;-71
2024/01/28 10:15:30;;;;;;;8.17;7.40;;;;;;;5.48;65.25;102640.59;4956047;28;20193;-71
2024/01/28 10:17:57;;;;;;;9.57;8.27;;;;;;;5.63;64.51;102633.69;4956107;28;20211;-71
2024/01/28 10:20:25;;;;;;;8.53;7.77;;;;;;;5.77;63.87;102633.91;4956087;29;20189;-71
2024/01/28 10:22:53;;;;;;;12.30;7.40;;;;;;;5.93;63.77;102634.91;4955246;28;20566;-71
2024/01/28 10:25:22;;;;;;;8.30;7.67;;;;;;;6.12;63.44;102634.84;4956164;28;20184;-71
2024/01/28 10:27:49;;;;;;;9.37;7.83;;;;;;;6.23;62.46;102635.19;4955989;28;20227;-71
2024/01/28 10:30:18;;;;;;;8.60;7.63;;;;;;;6.38;62.22;102629.94;4955798;28;20229;-71
2024/01/28 10:32:45;;;;;;;9.20;7.23;;;;;;;6.51;60.45;102631.97;4956229;28;20240;-71
2024/01/28 10:35:12;;;;;;;8.37;7.57;;;;;;;6.64;62.04;102630.41;4955729;28;20201;-71
2024/01/28 10:37:40;;;;;;;9.03;8.20;;;;;;;6.80;62.26;102628.66;4955874;28;20572;-71
2024/01/28 10:40:08;;;;;;;8.73;8.13;;;;;;;6.96;62.67;102632.22;4955941;28;20193;-71
2024/01/28 10:42:40;;;;;;;9.63;7.13;;;;;;;7.22;62.04;102620.16;4955621;28;20183;-71
2024/01/28 10:45:13;;;;;;;11.47;7.60;;;;;;;7.33;61.43;102624.00;4955922;28;20199;-71
2024/01/28 10:47:44;;;;;;;7.37;6.87;;;;;;;7.43;60.75;102616.31;4955373;28;20596;-71
2024/01/28 10:50:14;;;;;;;13.50;7.50;;;;;;;7.63;60.25;102615.25;4955911;28;20687;-73
2024/01/28 10:52:43;;;;;;;7.83;7.07;;;;;;;7.74;59.62;102615.47;4955642;28;20261;-72
2024/01/28 10:55:10;;;;;;;7.13;6.60;;;;;;;7.82;60.06;102608.75;4956106;28;20183;-74
2024/01/28 10:57:39;;;;;;;8.00;7.27;;;;;;;8.02;59.91;102609.44;4955763;28;20557;-73
2024/01/28 11:00:06;;;;;;;11.50;6.53;;;;;;;8.18;59.49;102603.13;4955358;28;20721;-73
2024/01/28 11:02:34;;;;;;;7.60;7.07;;;;;;;8.36;58.96;102585.19;4956161;28;20592;-72
2024/01/28 11:05:02;;;;;;;15.07;9.60;;;;;;;8.55;58.79;102579.63;4955338;28;20249;-72
2024/01/28 11:07:29;;;;;;;11.13;8.03;;;;;;;8.74;57.85;102580.22;4955391;28;20338;-72
2024/01/28 11:09:59;;;;;;;6.93;6.57;;;;;;;8.89;56.05;102579.25;4955555;28;20242;-73
2024/01/28 11:12:27;;;;;;;7.07;6.57;;;;;;;8.98;56.39;102583.16;4955570;28;20174;-72